Time;durP1;ratioP1;P1;durP2;ratioP2;P2;SDS_P1;SDS_P2;PMS_P1;PMS_P2;Temp;Humidity;BMP_temperature;BMP_pressure;BME280_temperature;BME280_humidity;BME280_pressure;Samples;Min_cycle;Max_cycle;Signal;HPM_P1;HPM_P2
2023/11/02 00:00:54;;;;;;;;;;;;;;;;;;4998144;28;19929;-69
2023/11/02 00:03:20;;;;;;;;;;;;;;;;;;5002284;28;19964;-68
2023/11/02 00:05:46;;;;;;;;;;;;;;;;;;5014786;28;20398;-69
2023/11/02 00:08:12;;;;;;;;;;;;;;;;;;5016886;28;19932;-68
2023/11/02 00:10:38;;;;;;;;;;;;;;;;;;5018892;28;19924;-68
2023/11/02 00:13:04;;;;;;;;;;;;;;;;;;5015367;28;20363;-69
2023/11/02 00:15:30;;;;;;;;;;;;;;;;;;5020987;28;20173;-68
2023/11/02 00:17:56;;;;;;;;;;;;;;;;;;5016516;28;19978;-69
2023/11/02 00:20:21;;;;;;;;;;;;;;;;;;5031221;28;20056;-68
2023/11/02 00:22:48;;;;;;;;;;;;;;;;;;5022935;28;19921;-68
2023/11/02 00:25:14;;;;;;;;;;;;;;;;;;5026592;28;19931;-68
2023/11/02 00:27:40;;;;;;;;;;;;;;;;;;5025233;28;20007;-68
2023/11/02 00:30:06;;;;;;;;;;;;;;;;;;5009788;28;19983;-68
2023/11/02 00:32:33;;;;;;;;;;;;;;;;;;5027337;28;19925;-68
2023/11/02 00:34:59;;;;;;;;;;;;;;;;;;5050589;28;19943;-68
2023/11/02 00:37:24;;;;;;;;;;;;;;;;;;5008910;28;19921;-68
2023/11/02 00:39:50;;;;;;;;;;;;;;;;;;5027804;28;19925;-68
2023/11/02 00:42:16;;;;;;;;;;;;;;;;;;5014003;28;19936;-68
2023/11/02 00:44:46;;;;;;;;;;;;;;;;;;5039570;28;19925;-69
2023/11/02 00:47:12;;;;;;;;;;;;;;;;;;5030873;28;20003;-68
2023/11/02 00:49:39;;;;;;;;;;;;;;;;;;5026216;28;19947;-68
2023/11/02 00:52:06;;;;;;;;;;;;;;;;;;5019392;28;19963;-68
2023/11/02 00:54:32;;;;;;;;;;;;;;;;;;5029473;28;19921;-68
2023/11/02 00:56:58;;;;;;;;;;;;;;;;;;5031223;28;20353;-68
2023/11/02 00:59:25;;;;;;;;;;;;;;;;;;5050627;28;19924;-68
2023/11/02 01:01:50;;;;;;;;;;;;;;;;;;5025143;28;19928;-68
2023/11/02 01:04:16;;;;;;;;;;;;;;;;;;5023333;28;20373;-68
2023/11/02 01:06:42;;;;;;;;;;;;;;;;;;5036187;28;19927;-68
2023/11/02 01:09:08;;;;;;;;;;;;;;;;;;5034348;28;19959;-68
2023/11/02 01:11:34;;;;;;;;;;;;;;;;;;5029343;28;19929;-68
2023/11/02 01:14:01;;;;;;;;;;;;;;;;;;5021144;28;20421;-68
2023/11/02 01:16:28;;;;;;;;;;;;;;;;;;5044376;28;19944;-68
2023/11/02 01:18:54;;;;;;;;;;;;;;;;;;5042546;28;19974;-68
2023/11/02 01:21:20;;;;;;;;;;;;;;;;;;5021188;28;19933;-68
2023/11/02 01:23:46;;;;;;;;;;;;;;;;;;5016355;28;20305;-68
2023/11/02 01:26:11;;;;;;;;;;;;;;;;;;5035103;28;19921;-68
2023/11/02 01:28:37;;;;;;;;;;;;;;;;;;5039424;28;19932;-68
2023/11/02 01:31:04;;;;;;;;;;;;;;;;;;5019311;28;20366;-68
2023/11/02 01:33:30;;;;;;;;;;;;;;;;;;5038259;28;19936;-68
2023/11/02 01:35:56;;;;;;;;;;;;;;;;;;5013936;28;19925;-68
2023/11/02 01:38:21;;;;;;;;;;;;;;;;;;5020920;28;20298;-68
2023/11/02 01:40:47;;;;;;;;;;;;;;;;;;5013388;28;19940;-68
2023/11/02 01:43:14;;;;;;;;;;;;;;;;;;5023914;28;19975;-68
2023/11/02 01:45:40;;;;;;;;;;;;;;;;;;5017889;28;19948;-68
2023/11/02 01:48:06;;;;;;;;;;;;;;;;;;5027333;28;19921;-68
2023/11/02 01:50:32;;;;;;;;;;;;;;;;;;5021173;28;20034;-68
2023/11/02 01:52:58;;;;;;;;;;;;;;;;;;5021242;28;19921;-68
2023/11/02 01:55:24;;;;;;;;;;;;;;;;;;5022730;28;19968;-68
2023/11/02 01:57:50;;;;;;;;;;;;;;;;;;5023078;28;19924;-68
2023/11/02 02:00:16;;;;;;;;;;;;;;;;;;5020831;28;19932;-68
2023/11/02 02:02:42;;;;;;;;;;;;;;;;;;5028738;28;19921;-68
2023/11/02 02:05:08;;;;;;;;;;;;;;;;;;5001299;28;19925;-68
2023/11/02 02:07:34;;;;;;;;;;;;;;;;;;5013111;28;20012;-68
2023/11/02 02:10:00;;;;;;;;;;;;;;;;;;5019689;28;20000;-69
2023/11/02 02:12:26;;;;;;;;;;;;;;;;;;5033440;28;19933;-69
2023/11/02 02:14:52;;;;;;;;;;;;;;;;;;5013808;28;19921;-69
2023/11/02 02:17:18;;;;;;;;;;;;;;;;;;5034056;28;19928;-69
2023/11/02 02:19:44;;;;;;;;;;;;;;;;;;5025736;28;19929;-68
2023/11/02 02:22:10;;;;;;;;;;;;;;;;;;5011442;28;19940;-68
2023/11/02 02:24:37;;;;;;;;;;;;;;;;;;5012596;28;19921;-68
2023/11/02 02:27:03;;;;;;;;;;;;;;;;;;5023829;28;19979;-68
2023/11/02 02:29:29;;;;;;;;;;;;;;;;;;5016435;28;19921;-68
2023/11/02 02:31:55;;;;;;;;;;;;;;;;;;5027440;28;19921;-69
2023/11/02 02:34:21;;;;;;;;;;;;;;;;;;5034935;28;19932;-68
2023/11/02 02:36:47;;;;;;;;;;;;;;;;;;5014908;28;20294;-68
2023/11/02 02:39:13;;;;;;;;;;;;;;;;;;5031706;28;19921;-68
2023/11/02 02:41:39;;;;;;;;;;;;;;;;;;5030654;28;19940;-68
2023/11/02 02:44:06;;;;;;;;;;;;;;;;;;5034878;28;19928;-68
2023/11/02 02:46:31;;;;;;;;;;;;;;;;;;5019263;28;19971;-68
2023/11/02 02:48:57;;;;;;;;;;;;;;;;;;5039034;28;19920;-68
2023/11/02 02:51:23;;;;;;;;;;;;;;;;;;5036705;28;20363;-68
2023/11/02 02:53:49;;;;;;;;;;;;;;;;;;5037498;28;20397;-69
2023/11/02 02:56:15;;;;;;;;;;;;;;;;;;5028577;28;20306;-68
2023/11/02 02:58:41;;;;;;;;;;;;;;;;;;5034826;28;19921;-68
2023/11/02 03:01:07;;;;;;;;;;;;;;;;;;5018931;28;20289;-68
2023/11/02 03:03:33;;;;;;;;;;;;;;;;;;5037063;28;20019;-69
2023/11/02 03:05:59;;;;;;;;;;;;;;;;;;5015995;28;20414;-68
2023/11/02 03:08:25;;;;;;;;;;;;;;;;;;5024610;28;19920;-68
2023/11/02 03:10:51;;;;;;;;;;;;;;;;;;5025237;28;19932;-68
2023/11/02 03:13:17;;;;;;;;;;;;;;;;;;5029196;28;19974;-68
2023/11/02 03:15:42;;;;;;;;;;;;;;;;;;5028541;28;19921;-68
2023/11/02 03:18:08;;;;;;;;;;;;;;;;;;5026661;28;19927;-68
2023/11/02 03:20:34;;;;;;;;;;;;;;;;;;5012422;28;19924;-68
2023/11/02 03:23:00;;;;;;;;;;;;;;;;;;5025509;28;19929;-68
2023/11/02 03:25:26;;;;;;;;;;;;;;;;;;5011463;28;20347;-68
2023/11/02 03:27:52;;;;;;;;;;;;;;;;;;5035865;28;20027;-68
2023/11/02 03:30:18;;;;;;;;;;;;;;;;;;5026765;28;19929;-68
2023/11/02 03:32:44;;;;;;;;;;;;;;;;;;5032689;28;19921;-68
2023/11/02 03:35:10;;;;;;;;;;;;;;;;;;5036069;28;19969;-68
2023/11/02 03:37:36;;;;;;;;;;;;;;;;;;5030660;28;19928;-68
2023/11/02 03:40:02;;;;;;;;;;;;;;;;;;5046341;28;19925;-68
2023/11/02 03:42:29;;;;;;;;;;;;;;;;;;5036344;28;19925;-68
2023/11/02 03:44:55;;;;;;;;;;;;;;;;;;5017504;28;19932;-68
2023/11/02 03:47:21;;;;;;;;;;;;;;;;;;5050500;28;19925;-68
2023/11/02 03:49:47;;;;;;;;;;;;;;;;;;5049771;28;20366;-68
2023/11/02 03:52:13;;;;;;;;;;;;;;;;;;5035173;28;19922;-68
2023/11/02 03:54:38;;;;;;;;;;;;;;;;;;5035832;28;19940;-68
2023/11/02 03:57:04;;;;;;;;;;;;;;;;;;5041978;28;20014;-69
2023/11/02 03:59:30;;;;;;;;;;;;;;;;;;5020653;28;19925;-68
2023/11/02 04:01:56;;;;;;;;;;;;;;;;;;5039332;28;20319;-68
2023/11/02 04:04:22;;;;;;;;;;;;;;;;;;5026623;28;19921;-68
2023/11/02 04:06:48;;;;;;;;;;;;;;;;;;5037170;28;20020;-68
2023/11/02 04:09:14;;;;;;;;;;;;;;;;;;5020471;28;20013;-68
2023/11/02 04:11:40;;;;;;;;;;;;;;;;;;5021142;28;20016;-68
2023/11/02 04:14:06;;;;;;;;;;;;;;;;;;5037960;28;19952;-68
2023/11/02 04:16:32;;;;;;;;;;;;;;;;;;5041048;28;19971;-68
2023/11/02 04:18:59;;;;;;;;;;;;;;;;;;5013779;28;19921;-68
2023/11/02 04:21:25;;;;;;;;;;;;;;;;;;5038463;28;19929;-68
2023/11/02 04:23:51;;;;;;;;;;;;;;;;;;5028060;28;19928;-68
2023/11/02 04:26:17;;;;;;;;;;;;;;;;;;5008872;28;20310;-68
2023/11/02 04:28:43;;;;;;;;;;;;;;;;;;5011618;28;19925;-68
2023/11/02 04:31:09;;;;;;;;;;;;;;;;;;5010574;28;19928;-68
2023/11/02 04:33:35;;;;;;;;;;;;;;;;;;5045451;28;20022;-68
2023/11/02 04:36:00;;;;;;;;;;;;;;;;;;5015753;28;19968;-68
2023/11/02 04:38:26;;;;;;;;;;;;;;;;;;5015983;28;19939;-68
2023/11/02 04:40:55;;;;;;;;;;;;;;;;;;5035196;28;20349;-68
2023/11/02 04:43:21;;;;;;;;;;;;;;;;;;5025853;28;19920;-68
2023/11/02 04:45:47;;;;;;;;;;;;;;;;;;5026614;28;19921;-68
2023/11/02 04:48:13;;;;;;;;;;;;;;;;;;5031254;28;20016;-68
2023/11/02 04:50:39;;;;;;;;;;;;;;;;;;5032487;28;20023;-68
2023/11/02 04:53:06;;;;;;;;;;;;;;;;;;5032741;28;20412;-68
2023/11/02 04:55:32;;;;;;;;;;;;;;;;;;5030726;28;19948;-68
2023/11/02 04:57:58;;;;;;;;;;;;;;;;;;5032833;28;20084;-68
2023/11/02 05:00:24;;;;;;;;;;;;;;;;;;5030027;28;19929;-68
2023/11/02 05:02:50;;;;;;;;;;;;;;;;;;5029257;28;20621;-68
2023/11/02 05:05:16;;;;;;;;;;;;;;;;;;5029323;28;19976;-68
2023/11/02 05:07:42;;;;;;;;;;;;;;;;;;5030024;28;19964;-68
2023/11/02 05:10:08;;;;;;;;;;;;;;;;;;5035481;28;19928;-68
2023/11/02 05:12:34;;;;;;;;;;;;;;;;;;5042460;28;19925;-68
2023/11/02 05:14:59;;;;;;;;;;;;;;;;;;5039039;28;20294;-68
2023/11/02 05:17:25;;;;;;;;;;;;;;;;;;5018364;28;20480;-69
2023/11/02 05:19:51;;;;;;;;;;;;;;;;;;5029163;28;19936;-68
2023/11/02 05:22:17;;;;;;;;;;;;;;;;;;5014944;28;19933;-68
2023/11/02 05:24:43;;;;;;;;;;;;;;;;;;5032390;28;20554;-68
2023/11/02 05:27:09;;;;;;;;;;;;;;;;;;5016141;28;19964;-68
2023/11/02 05:29:35;;;;;;;;;;;;;;;;;;5034346;28;20011;-68
2023/11/02 05:32:01;;;;;;;;;;;;;;;;;;5012287;28;19931;-68
2023/11/02 05:34:27;;;;;;;;;;;;;;;;;;5036558;28;19925;-68
2023/11/02 05:36:53;;;;;;;;;;;;;;;;;;5016690;28;20007;-68
2023/11/02 05:39:19;;;;;;;;;;;;;;;;;;5034654;28;20347;-68
2023/11/02 05:41:45;;;;;;;;;;;;;;;;;;5015548;28;19933;-68
2023/11/02 05:44:11;;;;;;;;;;;;;;;;;;5012674;28;19931;-69
2023/11/02 05:46:37;;;;;;;;;;;;;;;;;;5009576;28;19921;-68
2023/11/02 05:49:03;;;;;;;;;;;;;;;;;;5034479;28;20336;-68
2023/11/02 05:51:29;;;;;;;;;;;;;;;;;;5044168;28;20295;-68
2023/11/02 05:53:55;;;;;;;;;;;;;;;;;;5013559;28;19921;-70
2023/11/02 05:56:20;;;;;;;;;;;;;;;;;;5031546;28;19951;-68
2023/11/02 05:58:53;;;;;;;;;;;;;;;;;;5017753;28;20387;-68
2023/11/02 06:01:19;;;;;;;;;;;;;;;;;;5027497;28;19925;-68
2023/11/02 06:03:47;;;;;;;;;;;;;;;;;;5027104;28;19967;-68
2023/11/02 06:06:13;;;;;;;;;;;;;;;;;;5046266;28;19971;-67
2023/11/02 06:08:39;;;;;;;;;;;;;;;;;;5034986;28;19921;-67
2023/11/02 06:11:05;;;;;;;;;;;;;;;;;;5031330;28;19925;-68
2023/11/02 06:13:33;;;;;;;;;;;;;;;;;;5030003;28;19933;-67
2023/11/02 06:15:59;;;;;;;;;;;;;;;;;;5045176;28;20406;-65
2023/11/02 06:18:26;;;;;;;;;;;;;;;;;;5030567;28;19928;-65
2023/11/02 06:20:52;;;;;;;;;;;;;;;;;;5051072;28;19978;-64
2023/11/02 06:23:18;;;;;;;;;;;;;;;;;;5032433;28;19921;-64
2023/11/02 06:25:44;;;;;;;;;;;;;;;;;;5035499;28;20067;-65
2023/11/02 06:28:10;;;;;;;;;;;;;;;;;;5021847;28;20668;-64
2023/11/02 06:30:36;;;;;;;;;;;;;;;;;;5030823;28;20641;-64
2023/11/02 06:33:02;;;;;;;;;;;;;;;;;;5026758;28;19931;-64
2023/11/02 06:35:28;;;;;;;;;;;;;;;;;;5040326;28;20281;-64
2023/11/02 06:37:54;;;;;;;;;;;;;;;;;;5031018;28;20618;-64
2023/11/02 06:40:20;;;;;;;;;;;;;;;;;;5013916;28;20565;-65
2023/11/02 06:42:49;;;;;;;;;;;;;;;;;;5013641;28;19937;-65
2023/11/02 06:45:15;;;;;;;;;;;;;;;;;;5018202;28;19999;-64
2023/11/02 06:47:41;;;;;;;;;;;;;;;;;;5026652;28;19921;-64
2023/11/02 06:50:07;;;;;;;;;;;;;;;;;;5030543;28;20378;-64
2023/11/02 06:52:33;;;;;;;;;;;;;;;;;;5029650;28;20350;-64
2023/11/02 06:54:59;;;;;;;;;;;;;;;;;;5039904;28;19979;-64
2023/11/02 06:57:25;;;;;;;;;;;;;;;;;;5039689;28;19975;-64
2023/11/02 06:59:51;;;;;;;;;;;;;;;;;;5024960;28;20298;-64
2023/11/02 07:02:17;;;;;;;;;;;;;;;;;;5023616;28;20023;-64
2023/11/02 07:04:43;;;;;;;;;;;;;;;;;;5017693;28;20375;-64
2023/11/02 07:07:09;;;;;;;;;;;;;;;;;;5031846;28;19927;-64
2023/11/02 07:09:35;;;;;;;;;;;;;;;;;;5043322;28;19920;-64
2023/11/02 07:12:03;;;;;;;;;;;;;;;;;;5027651;28;20414;-64
2023/11/02 07:14:29;;;;;;;;;;;;;;;;;;5042167;28;19921;-64
2023/11/02 07:16:55;;;;;;;;;;;;;;;;;;5040110;28;19987;-64
2023/11/02 07:19:20;;;;;;;;;;;;;;;;;;5030325;28;19928;-64
2023/11/02 07:21:46;;;;;;;;;;;;;;;;;;5012096;28;20286;-64
2023/11/02 07:24:12;;;;;;;;;;;;;;;;;;5029879;28;19936;-64
2023/11/02 07:26:38;;;;;;;;;;;;;;;;;;5008892;28;19929;-64
2023/11/02 07:29:04;;;;;;;;;;;;;;;;;;5030039;28;20314;-64
2023/11/02 07:31:30;;;;;;;;;;;;;;;;;;5034999;28;20012;-64
2023/11/02 07:33:56;;;;;;;;;;;;;;;;;;5030252;28;20426;-64
2023/11/02 07:36:22;;;;;;;;;;;;;;;;;;5032127;28;19947;-64
2023/11/02 07:38:48;;;;;;;;;;;;;;;;;;5015554;28;19929;-64
2023/11/02 07:41:15;;;;;;;;;;;;;;;;;;5032152;28;19932;-64
2023/11/02 07:43:41;;;;;;;;;;;;;;;;;;5029039;28;19933;-64
2023/11/02 07:46:07;;;;;;;;;;;;;;;;;;5037143;28;19928;-64
2023/11/02 07:48:33;;;;;;;;;;;;;;;;;;5014789;28;20312;-64
2023/11/02 07:50:59;;;;;;;;;;;;;;;;;;5037245;28;19970;-64
2023/11/02 07:53:25;;;;;;;;;;;;;;;;;;5053296;28;19921;-64
2023/11/02 07:55:50;;;;;;;;;;;;;;;;;;5038272;28;20255;-64
2023/11/02 07:58:17;;;;;;;;;;;;;;;;;;5040757;28;19921;-64
2023/11/02 08:00:42;;;;;;;;;;;;;;;;;;5017364;28;19955;-64
2023/11/02 08:03:08;;;;;;;;;;;;;;;;;;5035587;28;20020;-63
2023/11/02 08:05:35;;;;;;;;;;;;;;;;;;5031433;28;19921;-64
2023/11/02 08:08:00;;;;;;;;;;;;;;;;;;5034925;28;20059;-64
2023/11/02 08:10:26;;;;;;;;;;;;;;;;;;5018883;28;20024;-64
2023/11/02 08:12:52;;;;;;;;;;;;;;;;;;5034987;28;19974;-64
2023/11/02 08:15:18;;;;;;;;;;;;;;;;;;5017442;28;19925;-64
2023/11/02 08:17:44;;;;;;;;;;;;;;;;;;5015745;28;20290;-64
2023/11/02 08:20:10;;;;;;;;;;;;;;;;;;5036834;28;19956;-64
2023/11/02 08:22:36;;;;;;;;;;;;;;;;;;5018579;28;20011;-64
2023/11/02 08:25:03;;;;;;;;;;;;;;;;;;5016735;28;20255;-64
2023/11/02 08:27:29;;;;;;;;;;;;;;;;;;5016301;28;19929;-64
2023/11/02 08:29:55;;;;;;;;;;;;;;;;;;5030714;28;19965;-64
2023/11/02 08:32:21;;;;;;;;;;;;;;;;;;5041962;28;19960;-64
2023/11/02 08:34:47;;;;;;;;;;;;;;;;;;5045638;28;20121;-65
2023/11/02 08:37:13;;;;;;;;;;;;;;;;;;5036841;28;19956;-64
2023/11/02 08:39:39;;;;;;;;;;;;;;;;;;5012436;28;19935;-64
2023/11/02 08:42:05;;;;;;;;;;;;;;;;;;5027231;28;20394;-64
2023/11/02 08:44:31;;;;;;;;;;;;;;;;;;5023175;28;19921;-63
2023/11/02 08:46:57;;;;;;;;;;;;;;;;;;5041429;28;19932;-64
2023/11/02 08:49:23;;;;;;;;;;;;;;;;;;5038841;28;20699;-64
2023/11/02 08:51:49;;;;;;;;;;;;;;;;;;5031854;28;20019;-64
2023/11/02 08:54:15;;;;;;;;;;;;;;;;;;5049369;28;19966;-64
2023/11/02 08:56:42;;;;;;;;;;;;;;;;;;5046639;28;20291;-64
2023/11/02 08:59:08;;;;;;;;;;;;;;;;;;5046439;28;20000;-64
2023/11/02 09:01:34;;;;;;;;;;;;;;;;;;5041027;28;20047;-64
2023/11/02 09:04:00;;;;;;;;;;;;;;;;;;5039065;28;19928;-64
2023/11/02 09:06:25;;;;;;;;;;;;;;;;;;5046269;28;20279;-64
2023/11/02 09:08:53;;;;;;;;;;;;;;;;;;5050548;28;19928;-64
2023/11/02 09:11:19;;;;;;;;;;;;;;;;;;5038328;28;20322;-64
2023/11/02 09:13:45;;;;;;;;;;;;;;;;;;5045323;28;19921;-63
2023/11/02 09:16:11;;;;;;;;;;;;;;;;;;5043197;28;19928;-64
2023/11/02 09:18:38;;;;;;;;;;;;;;;;;;5030415;28;19921;-64
2023/11/02 09:21:04;;;;;;;;;;;;;;;;;;5031043;28;23942;-64
2023/11/02 09:23:31;;;;;;;;;;;;;;;;;;5040156;28;19951;-64
2023/11/02 09:25:57;;;;;;;;;;;;;;;;;;5055430;22;19972;-61
2023/11/02 09:28:23;;;;;;;;;;;;;;;;;;5009824;28;20624;-61
2023/11/02 09:30:49;;;;;;;;;;;;;;;;;;5024434;28;20008;-61
2023/11/02 09:33:15;;;;;;;;;;;;;;;;;;5015899;28;19925;-61
2023/11/02 09:35:41;;;;;;;;;;;;;;;;;;5020694;28;20344;-61
2023/11/02 09:38:07;;;;;;;;;;;;;;;;;;5024652;28;19967;-61
2023/11/02 09:40:33;;;;;;;;;;;;;;;;;;5034324;28;19935;-61
2023/11/02 09:43:02;;;;;;;;;;;;;;;;;;5036785;28;20096;-61
2023/11/02 09:45:29;;;;;;;;;;;;;;;;;;5012005;28;19921;-61
2023/11/02 09:47:54;;;;;;;;;;;;;;;;;;5051890;28;19925;-61
2023/11/02 09:50:22;;;;;;;;;;;;;;;;;;5035692;28;20251;-61
2023/11/02 09:52:48;;;;;;;;;;;;;;;;;;5018091;28;19924;-61
2023/11/02 09:55:14;;;;;;;;;;;;;;;;;;5038461;28;19921;-61
2023/11/02 09:57:40;;;;;;;;;;;;;;;;;;5033119;28;19921;-61
2023/11/02 10:00:07;;;;;;;;;;;;;;;;;;5035029;28;19920;-61
2023/11/02 10:02:34;;;;;;;;;;;;;;;;;;5037407;28;19932;-61
2023/11/02 10:05:00;;;;;;;;;;;;;;;;;;5029164;28;19925;-61
2023/11/02 10:07:26;;;;;;;;;;;;;;;;;;5035393;28;19925;-59
2023/11/02 10:09:52;;;;;;;;;;;;;;;;;;5018803;28;19920;-59
2023/11/02 10:12:18;;;;;;;;;;;;;;;;;;5037375;28;19931;-59
2023/11/02 10:14:44;;;;;;;;;;;;;;;;;;5023513;28;19956;-59
2023/11/02 10:17:11;;;;;;;;;;;;;;;;;;5036006;28;19921;-60
2023/11/02 10:19:37;;;;;;;;;;;;;;;;;;5033155;28;19925;-60
2023/11/02 10:22:04;;;;;;;;;;;;;;;;;;5012930;28;20401;-60
2023/11/02 10:24:31;;;;;;;;;;;;;;;;;;5040399;28;19939;-61
2023/11/02 10:26:57;;;;;;;;;;;;;;;;;;5046368;28;19932;-60
2023/11/02 10:29:24;;;;;;;;;;;;;;;;;;5037325;28;19921;-60
2023/11/02 10:31:53;;;;;;;;;;;;;;;;;;5036437;28;19928;-60
2023/11/02 10:34:19;;;;;;;;;;;;;;;;;;5034716;28;20495;-60
2023/11/02 10:36:45;;;;;;;;;;;;;;;;;;5010940;28;20326;-60
2023/11/02 10:39:12;;;;;;;;;;;;;;;;;;5027900;28;19971;-60
2023/11/02 10:41:38;;;;;;;;;;;;;;;;;;5034326;28;19936;-61
2023/11/02 10:44:05;;;;;;;;;;;;;;;;;;5032696;28;20367;-61
2023/11/02 10:46:31;;;;;;;;;;;;;;;;;;5003177;28;19925;-61
2023/11/02 10:48:56;;;;;;;;;;;;;;;;;;5018262;28;19987;-61
2023/11/02 10:51:24;;;;;;;;;;;;;;;;;;5016224;28;20290;-61
2023/11/02 10:53:50;;;;;;;;;;;;;;;;;;5035600;28;19925;-60
2023/11/02 10:56:16;;;;;;;;;;;;;;;;;;5040998;28;19975;-60
2023/11/02 10:58:42;;;;;;;;;;;;;;;;;;5037814;28;19921;-60
2023/11/02 11:01:09;;;;;;;;;;;;;;;;;;5028137;28;20122;-60
2023/11/02 11:03:35;;;;;;;;;;;;;;;;;;5031619;28;20004;-60
2023/11/02 11:06:01;;;;;;;;;;;;;;;;;;5034830;28;20667;-59
2023/11/02 11:08:27;;;;;;;;;;;;;;;;;;5042558;28;19925;-60
2023/11/02 11:10:53;;;;;;;;;;;;;;;;;;5036043;28;19929;-60
2023/11/02 11:13:20;;;;;;;;;;;;;;;;;;5003601;28;20024;-60
2023/11/02 11:15:46;;;;;;;;;;;;;;;;;;5038531;28;19964;-61
2023/11/02 11:18:12;;;;;;;;;;;;;;;;;;5013468;28;19986;-60
2023/11/02 11:20:39;;;;;;;;;;;;;;;;;;5032253;28;19925;-61
2023/11/02 11:23:05;;;;;;;;;;;;;;;;;;5026871;28;19932;-60
2023/11/02 11:25:31;;;;;;;;;;;;;;;;;;5027294;28;19924;-59
2023/11/02 11:27:57;;;;;;;;;;;;;;;;;;5029145;28;20449;-60
2023/11/02 11:30:23;;;;;;;;;;;;;;;;;;5029591;28;19929;-60
2023/11/02 11:32:49;;;;;;;;;;;;;;;;;;5030908;28;19921;-59
2023/11/02 11:35:17;;;;;;;;;;;;;;;;;;5034453;28;19921;-60
2023/11/02 11:37:57;;;;;;;;;;;;;;;;;;5030959;28;19928;-60
2023/11/02 11:40:23;;;;;;;;;;;;;;;;;;5045059;28;20381;-60
2023/11/02 11:42:50;;;;;;;;;;;;;;;;;;5032737;28;19944;-60
2023/11/02 11:45:15;;;;;;;;;;;;;;;;;;5033946;28;19966;-60
2023/11/02 11:47:42;;;;;;;;;;;;;;;;;;5042332;28;19929;-60
2023/11/02 11:50:07;;;;;;;;;;;;;;;;;;5032914;28;19932;-60
2023/11/02 11:52:33;;;;;;;;;;;;;;;;;;5012937;28;19926;-60
2023/11/02 11:54:59;;;;;;;;;;;;;;;;;;5031918;28;20595;-60
2023/11/02 11:57:25;;;;;;;;;;;;;;;;;;5015962;28;19925;-59
2023/11/02 11:59:51;;;;;;;;;;;;;;;;;;5036174;28;19968;-60
2023/11/02 12:02:17;;;;;;;;;;;;;;;;;;5039222;28;19970;-59
2023/11/02 12:04:43;;;;;;;;;;;;;;;;;;5031928;28;20332;-59
2023/11/02 12:07:09;;;;;;;;;;;;;;;;;;5035336;28;19921;-60
2023/11/02 12:09:35;;;;;;;;;;;;;;;;;;5017455;28;19925;-59
2023/11/02 12:12:01;;;;;;;;;;;;;;;;;;5032286;28;20282;-59
2023/11/02 12:14:26;;;;;;;;;;;;;;;;;;5035327;28;19928;-60
2023/11/02 12:16:52;;;;;;;;;;;;;;;;;;5011167;28;19990;-60
2023/11/02 12:19:20;;;;;;;;;;;;;;;;;;5030655;28;20220;-60
2023/11/02 12:21:46;;;;;;;;;;;;;;;;;;5036829;28;20442;-60
2023/11/02 12:24:12;;;;;;;;;;;;;;;;;;5033033;28;19972;-60
2023/11/02 12:26:40;;;;;;;;;;;;;;;;;;5024777;28;20256;-60
2023/11/02 12:29:06;;;;;;;;;;;;;;;;;;5034032;28;19921;-60
2023/11/02 12:31:32;;;;;;;;;;;;;;;;;;5033117;28;19929;-60
2023/11/02 12:33:58;;;;;;;;;;;;;;;;;;5038052;28;19925;-60
2023/11/02 12:36:24;;;;;;;;;;;;;;;;;;5040870;28;19924;-60
2023/11/02 12:38:50;;;;;;;;;;;;;;;;;;5028711;28;20361;-60
2023/11/02 12:41:17;;;;;;;;;;;;;;;;;;5039528;28;19921;-60
2023/11/02 12:43:43;;;;;;;;;;;;;;;;;;5028474;28;19921;-60
2023/11/02 12:46:10;;;;;;;;;;;;;;;;;;5028747;28;20008;-60
2023/11/02 12:48:40;;;;;;;;;;;;;;;;;;5033042;28;19968;-60
2023/11/02 12:51:06;;;;;;;;;;;;;;;;;;5047006;28;19921;-60
2023/11/02 12:53:34;;;;;;;;;;;;;;;;;;5029016;28;19925;-60
2023/11/02 12:56:01;;;;;;;;;;;;;;;;;;5033271;28;20016;-60
2023/11/02 12:58:27;;;;;;;;;;;;;;;;;;5032816;28;19921;-60
2023/11/02 13:00:53;;;;;;;;;;;;;;;;;;5031545;28;19928;-60
2023/11/02 13:03:19;;;;;;;;;;;;;;;;;;5039287;28;20294;-60
2023/11/02 13:05:45;;;;;;;;;;;;;;;;;;5032791;28;20393;-60
2023/11/02 13:08:11;;;;;;;;;;;;;;;;;;5033235;28;19925;-60
2023/11/02 13:10:38;;;;;;;;;;;;;;;;;;5033020;28;19968;-60
2023/11/02 13:13:04;;;;;;;;;;;;;;;;;;5032958;28;19936;-60
2023/11/02 13:15:31;;;;;;;;;;;;;;;;;;5039541;28;19925;-60
2023/11/02 13:17:58;;;;;;;;;;;;;;;;;;5035192;28;19929;-60
2023/11/02 13:20:24;;;;;;;;;;;;;;;;;;5033873;28;19929;-60
2023/11/02 13:22:50;;;;;;;;;;;;;;;;;;5042825;28;19960;-59
2023/11/02 13:25:16;;;;;;;;;;;;;;;;;;5043666;28;19925;-60
2023/11/02 13:27:44;;;;;;;;;;;;;;;;;;5023895;28;20328;-60
2023/11/02 13:30:11;;;;;;;;;;;;;;;;;;5037557;28;19920;-60
2023/11/02 13:32:37;;;;;;;;;;;;;;;;;;5040300;28;20331;-60
2023/11/02 13:35:04;;;;;;;;;;;;;;;;;;5039648;28;19947;-60
2023/11/02 13:37:30;;;;;;;;;;;;;;;;;;5038173;28;20023;-60
2023/11/02 13:39:56;;;;;;;;;;;;;;;;;;5029702;28;20572;-60
2023/11/02 13:42:22;;;;;;;;;;;;;;;;;;5045419;28;19961;-60
2023/11/02 13:44:48;;;;;;;;;;;;;;;;;;5029059;28;19924;-61
2023/11/02 13:47:13;;;;;;;;;;;;;;;;;;5041100;28;19921;-61
2023/11/02 13:49:39;;;;;;;;;;;;;;;;;;5020756;28;19927;-61
2023/11/02 13:52:06;;;;;;;;;;;;;;;;;;5011465;28;19920;-61
2023/11/02 13:54:33;;;;;;;;;;;;;;;;;;5027854;28;19956;-61
2023/11/02 13:56:59;;;;;;;;;;;;;;;;;;5035568;28;20414;-61
2023/11/02 13:59:26;;;;;;;;;;;;;;;;;;5029227;28;19928;-61
2023/11/02 14:01:52;;;;;;;;;;;;;;;;;;5044934;28;19925;-61
2023/11/02 14:04:18;;;;;;;;;;;;;;;;;;5028114;28;19930;-61
2023/11/02 14:06:47;;;;;;;;;;;;;;;;;;5033587;28;20621;-61
2023/11/02 14:09:14;;;;;;;;;;;;;;;;;;5029230;28;19929;-61
2023/11/02 14:11:40;;;;;;;;;;;;;;;;;;5030006;28;20375;-61
2023/11/02 14:14:06;;;;;;;;;;;;;;;;;;5025994;28;19930;-61
2023/11/02 14:16:32;;;;;;;;;;;;;;;;;;5012713;28;20659;-61
2023/11/02 14:19:00;;;;;;;;;;;;;;;;;;5030446;28;20047;-61
2023/11/02 14:21:26;;;;;;;;;;;;;;;;;;5027500;28;19983;-61
2023/11/02 14:23:52;;;;;;;;;;;;;;;;;;5025398;28;19925;-62
2023/11/02 14:26:18;;;;;;;;;;;;;;;;;;5042461;28;20313;-61
2023/11/02 14:28:44;;;;;;;;;;;;;;;;;;5022887;28;19931;-61
2023/11/02 14:31:10;;;;;;;;;;;;;;;;;;5028213;28;19999;-61
2023/11/02 14:33:36;;;;;;;;;;;;;;;;;;5029262;28;19921;-61
2023/11/02 14:36:04;;;;;;;;;;;;;;;;;;5029551;28;20371;-61
2023/11/02 14:38:30;;;;;;;;;;;;;;;;;;5026339;28;19984;-61
2023/11/02 14:40:56;;;;;;;;;;;;;;;;;;5031824;28;20398;-61
2023/11/02 14:43:22;;;;;;;;;;;;;;;;;;5028566;28;19932;-61
2023/11/02 14:45:48;;;;;;;;;;;;;;;;;;5011505;28;19924;-61
2023/11/02 14:48:14;;;;;;;;;;;;;;;;;;5030704;28;20679;-61
2023/11/02 14:50:40;;;;;;;;;;;;;;;;;;5028725;28;20387;-61
2023/11/02 14:53:06;;;;;;;;;;;;;;;;;;5040246;28;20015;-61
2023/11/02 14:55:32;;;;;;;;;;;;;;;;;;5022952;28;19922;-61
2023/11/02 14:57:59;;;;;;;;;;;;;;;;;;5025241;28;19925;-61
2023/11/02 15:00:25;;;;;;;;;;;;;;;;;;5031751;28;19936;-61
2023/11/02 15:02:51;;;;;;;;;;;;;;;;;;5028362;28;20040;-61
2023/11/02 15:05:17;;;;;;;;;;;;;;;;;;5035274;28;19925;-61
2023/11/02 15:07:43;;;;;;;;;;;;;;;;;;5024181;28;20427;-61
2023/11/02 15:10:09;;;;;;;;;;;;;;;;;;5029349;28;20370;-61
2023/11/02 15:12:35;;;;;;;;;;;;;;;;;;5028253;28;19925;-61
2023/11/02 15:15:02;;;;;;;;;;;;;;;;;;5023808;28;19937;-61
2023/11/02 15:17:28;;;;;;;;;;;;;;;;;;5008283;28;20547;-61
2023/11/02 15:19:55;;;;;;;;;;;;;;;;;;5019305;28;20445;-61
2023/11/02 15:22:23;;;;;;;;;;;;;;;;;;5031152;28;20425;-61
2023/11/02 15:24:49;;;;;;;;;;;;;;;;;;4998118;28;19964;-61
2023/11/02 15:27:15;;;;;;;;;;;;;;;;;;5030752;28;20048;-61
2023/11/02 15:29:41;;;;;;;;;;;;;;;;;;5031330;28;20272;-61
2023/11/02 15:32:07;;;;;;;;;;;;;;;;;;5026607;28;19925;-60
2023/11/02 15:34:33;;;;;;;;;;;;;;;;;;5019443;28;20262;-60
2023/11/02 15:36:58;;;;;;;;;;;;;;;;;;5008440;28;20279;-61
2023/11/02 15:39:25;;;;;;;;;;;;;;;;;;5030163;28;20355;-61
2023/11/02 15:41:53;;;;;;;;;;;;;;;;;;5031644;28;20056;-62
2023/11/02 15:44:18;;;;;;;;;;;;;;;;;;5024394;28;20286;-62
2023/11/02 15:46:44;;;;;;;;;;;;;;;;;;5026762;28;19966;-62
2023/11/02 15:49:10;;;;;;;;;;;;;;;;;;5030022;28;19945;-62
2023/11/02 15:51:36;;;;;;;;;;;;;;;;;;5017371;28;20291;-61
2023/11/02 15:54:02;;;;;;;;;;;;;;;;;;5032270;28;19921;-61
2023/11/02 15:56:28;;;;;;;;;;;;;;;;;;5033694;28;19928;-62
2023/11/02 15:58:54;;;;;;;;;;;;;;;;;;5035590;28;20623;-61
2023/11/02 16:01:21;;;;;;;;;;;;;;;;;;5026695;28;19936;-62
2023/11/02 16:03:47;;;;;;;;;;;;;;;;;;5032381;28;19946;-62
2023/11/02 16:06:13;;;;;;;;;;;;;;;;;;5033296;28;19925;-62
2023/11/02 16:08:39;;;;;;;;;;;;;;;;;;5031706;28;20367;-61
2023/11/02 16:11:05;;;;;;;;;;;;;;;;;;5033396;28;20002;-62
2023/11/02 16:13:30;;;;;;;;;;;;;;;;;;5041107;28;20053;-62
2023/11/02 16:15:56;;;;;;;;;;;;;;;;;;5030078;28;20409;-62
2023/11/02 16:18:22;;;;;;;;;;;;;;;;;;5030743;28;19921;-61
2023/11/02 16:20:49;;;;;;;;;;;;;;;;;;5031067;28;19921;-62
2023/11/02 16:23:15;;;;;;;;;;;;;;;;;;5030835;28;20374;-62
2023/11/02 16:25:41;;;;;;;;;;;;;;;;;;5032752;28;19929;-62
2023/11/02 16:28:06;;;;;;;;;;;;;;;;;;5039240;28;19921;-61
2023/11/02 16:30:34;;;;;;;;;;;;;;;;;;5042692;28;19921;-60
2023/11/02 16:33:00;;;;;;;;;;;;;;;;;;5034806;28;19925;-61
2023/11/02 16:35:27;;;;;;;;;;;;;;;;;;5031357;28;19935;-61
2023/11/02 16:37:53;;;;;;;;;;;;;;;;;;5045743;28;20323;-61